Terminal Aerodrome Forecast
Issued by NWS

Home | Current Version | Previous Version | Text Only | Print | Product List | Glossary On
Versions: 1 2 3 4 5 6 7 8 9 10 11 12 13 14 15 16
819
FTUS45 KMSO 211137
TAFSMN
TAF
KSMN 211137Z 2112/2212 21008KT P6SM VCSH OVC070
     FM211400 VRB04KT P6SM BKN100
     FM212300 21007KT P6SM VCSH BKN050
     FM220100 20008KT P6SM -RA OVC050
      AMD LTD TO CLD VIS AND WIND=

USA.gov is the U.S. government's official web portal to all federal, state and local government web resources and services.